Thursday, October 2, 2014, 10:26 AM EDT

KOKV, Winchester Regional

Location: Winchester, VA, United States Lat: 39.15
Local Time: 10:26 AM EDT (14:26 GMT) Lon: -78.15
Time Zone: US/Eastern Elev: 728 ft

Show me the last for .
Show Decoded

2014-10-02 09:55 METAR KOKV 021355Z AUTO 00000KT 2SM BR OVC004 16/16 A3015 RMK AO2 =
2014-10-02 09:35 METAR KOKV 021335Z AUTO 00000KT 1 1/4SM BR OVC002 15/15 A3015 RMK AO2 =
2014-10-02 09:15 METAR KOKV 021315Z AUTO 00000KT 3/4SM BR OVC002 15/15 A3015 RMK AO2 =
2014-10-02 08:55 METAR KOKV 021255Z AUTO 00000KT 1/4SM FG OVC002 15/15 A3014 RMK AO2 =
2014-10-02 08:35 METAR KOKV 021235Z AUTO 00000KT 1/4SM FG OVC002 15/14 A3013 RMK AO2 =
2014-10-02 08:15 METAR KOKV 021215Z AUTO 00000KT M1/4SM FG OVC002 15/14 A3013 RMK AO2 =
2014-10-02 07:55 METAR KOKV 021155Z AUTO 00000KT M1/4SM FG OVC002 15/14 A3013 RMK AO2 =
2014-10-02 07:35 METAR KOKV 021135Z AUTO 00000KT 1/4SM FG OVC002 15/14 A3012 RMK AO2 =
2014-10-02 07:15 METAR KOKV 021115Z AUTO 00000KT 1/2SM FG OVC002 14/14 A3011 RMK AO2 =
2014-10-02 06:55 METAR KOKV 021055Z AUTO 00000KT 1 3/4SM BR OVC002 15/14 A3010 RMK AO2 =
2014-10-02 06:35 METAR KOKV 021035Z AUTO 00000KT 1 1/2SM BR BKN002 OVC032 15/14 A3010 RMK AO2 =
2014-10-02 06:15 METAR KOKV 021015Z AUTO 00000KT 1 3/4SM BR BKN032 BKN040 OVC065 15/14 A3010 RMK
                 AO2 =
2014-10-02 05:55 METAR KOKV 020955Z AUTO 00000KT 2SM BR BKN032 BKN043 BKN060 15/15 A3010 RMK AO2
                 =
2014-10-02 05:35 METAR KOKV 020935Z AUTO 00000KT 2SM BR BKN034 BKN039 OVC050 15/15 A3010 RMK AO2
                 =
2014-10-02 05:15 METAR KOKV 020915Z AUTO 00000KT 2 1/2SM BR BKN030 BKN036 OVC046 15/15 A3009 RMK
                 AO2 =
2014-10-02 04:55 METAR KOKV 020855Z AUTO 00000KT 2 1/2SM BR OVC028 16/15 A3009 RMK AO2 =
2014-10-02 04:35 METAR KOKV 020835Z AUTO 00000KT 2 1/2SM BR OVC026 16/15 A3008 RMK AO2 =
2014-10-02 04:15 METAR KOKV 020815Z AUTO 00000KT 2SM BR OVC024 16/15 A3008 RMK AO2 =
2014-10-02 03:55 METAR KOKV 020755Z AUTO 00000KT 2SM BR SCT002 OVC022 16/15 A3008 RMK AO2 =
2014-10-02 03:35 METAR KOKV 020735Z AUTO 04003KT 2SM BR OVC022 16/15 A3008 RMK AO2 =
2014-10-02 02:55 METAR KOKV 020655Z AUTO 00000KT 2 1/2SM BR BKN029 BKN060 15/15 A3008 RMK AO2 =
2014-10-02 02:35 METAR KOKV 020635Z AUTO 00000KT 3SM BR SCT025 BKN032 BKN070 15/15 A3008 RMK AO2
                 =
2014-10-02 01:55 METAR KOKV 020555Z AUTO 00000KT 3SM BR BKN025 BKN075 BKN080 15/15 A3009 RMK AO2
                 =
2014-10-02 01:35 METAR KOKV 020535Z AUTO 00000KT 3SM BR SCT023 SCT065 BKN075 15/15 A3008 RMK AO2
                 =
2014-10-02 01:15 METAR KOKV 020515Z AUTO 00000KT 3SM BR BKN060 OVC075 15/15 A3008 RMK AO2 =
2014-10-02 00:55 METAR KOKV 020455Z AUTO 00000KT 1 1/4SM BR OVC060 15/14 A3008 RMK AO2 =
2014-10-02 00:35 METAR KOKV 020435Z AUTO 00000KT 1SM BR BKN070 14/13 A3008 RMK AO2 VIS 1/2V2 1/2
                 =
2014-10-02 00:15 METAR KOKV 020415Z AUTO 00000KT 2 1/2SM BR SCT070 15/14 A3007 RMK AO2 =
2014-10-01 23:55 METAR KOKV 020355Z AUTO 00000KT 1SM BR OVC070 14/13 A3008 RMK AO2 =
2014-10-01 23:35 METAR KOKV 020335Z AUTO 00000KT 2 1/2SM BR SCT060 BKN080 15/15 A3008 RMK AO2 =
2014-10-01 23:15 METAR KOKV 020315Z AUTO 00000KT 5SM BR BKN070 BKN080 16/15 A3008 RMK AO2 =
2014-10-01 22:55 METAR KOKV 020255Z AUTO 00000KT 4SM BR SCT070 BKN080 16/15 A3008 RMK AO2 =
2014-10-01 22:35 METAR KOKV 020235Z AUTO 00000KT 5SM BR BKN080 16/15 A3008 RMK AO2 =
2014-10-01 22:15 METAR KOKV 020215Z AUTO 00000KT 7SM BKN070 16/15 A3008 RMK AO2 =
2014-10-01 21:55 METAR KOKV 020155Z AUTO 00000KT 7SM OVC070 16/15 A3008 RMK AO2 =
2014-10-01 21:35 METAR KOKV 020135Z AUTO 00000KT 7SM BKN070 16/16 A3007 RMK AO2 =
2014-10-01 21:15 METAR KOKV 020115Z AUTO 00000KT 7SM SCT070 SCT080 16/15 A3007 RMK AO2 =
2014-10-01 20:55 METAR KOKV 020055Z AUTO 00000KT 7SM BKN070 16/15 A3006 RMK AO2 =
2014-10-01 20:35 METAR KOKV 020035Z AUTO 00000KT 7SM OVC070 16/16 A3005 RMK AO2 =
2014-10-01 20:15 METAR KOKV 020015Z AUTO 00000KT 10SM SCT070 BKN080 16/15 A3005 RMK AO2 =
2014-10-01 19:55 METAR KOKV 012355Z AUTO 00000KT 7SM CLR 16/15 A3005 RMK AO2 =
2014-10-01 19:35 METAR KOKV 012335Z AUTO 00000KT 10SM CLR 17/15 A3004 RMK AO2 =
2014-10-01 19:15 METAR KOKV 012315Z AUTO 00000KT 10SM SCT024 17/16 A3004 RMK AO2 =
2014-10-01 18:55 METAR KOKV 012255Z AUTO 00000KT 10SM SCT024 18/16 A3004 RMK AO2 =
2014-10-01 18:35 METAR KOKV 012235Z AUTO 00000KT 10SM SCT026 SCT031 20/15 A3003 RMK AO2 =
2014-10-01 17:55 METAR KOKV 012155Z AUTO 08004KT 10SM SCT085 21/15 A3003 RMK AO2 =
2014-10-01 17:35 METAR KOKV 012135Z AUTO 10003KT 10SM SCT024 SCT085 21/15 A3003 RMK AO2 =
2014-10-01 17:15 METAR KOKV 012115Z AUTO 00000KT 10SM CLR 21/15 A3002 RMK AO2 =
2014-10-01 16:55 METAR KOKV 012055Z AUTO 08005KT 10SM SCT080 21/15 A3002 RMK AO2 =
2014-10-01 16:35 METAR KOKV 012035Z AUTO 03003KT 10SM SCT023 SCT030 BKN048 21/16 A3002 RMK AO2 =
2014-10-01 16:15 METAR KOKV 012015Z AUTO 09006KT 10SM SCT021 SCT029 SCT080 22/15 A3002 RMK AO2 =
2014-10-01 15:55 METAR KOKV 011955Z AUTO 09005KT 10SM SCT020 SCT026 SCT034 21/16 A3002 RMK AO2 =
2014-10-01 15:35 METAR KOKV 011935Z AUTO 06003KT 10SM SCT020 SCT028 BKN033 21/16 A3003 RMK AO2 =
2014-10-01 15:15 METAR KOKV 011915Z AUTO 07003KT 10SM SCT020 SCT028 SCT070 21/15 A3003 RMK AO2 =
2014-10-01 14:55 METAR KOKV 011855Z AUTO 07004KT 10SM SCT016 SCT022 SCT044 21/16 A3003 RMK AO2 =
2014-10-01 14:35 METAR KOKV 011835Z AUTO 06005KT 10SM BKN016 BKN034 OVC042 20/16 A3003 RMK AO2 =
2014-10-01 14:15 METAR KOKV 011815Z AUTO 10006KT 10SM SCT018 BKN032 OVC042 20/16 A3003 RMK AO2 =
2014-10-01 13:55 METAR KOKV 011755Z AUTO 04004KT 10SM SCT015 OVC030 21/16 A3003 RMK AO2 =
2014-10-01 13:35 METAR KOKV 011735Z AUTO 06004KT 10SM BKN013 BKN020 OVC028 20/16 A3004 RMK AO2 =
2014-10-01 13:15 METAR KOKV 011715Z AUTO 00000KT 10SM BKN011 OVC029 20/16 A3004 RMK AO2 =
2014-10-01 12:55 METAR KOKV 011655Z AUTO 06003KT 10SM BKN009 OVC020 19/17 A3005 RMK AO2 =
2014-10-01 12:35 METAR KOKV 011635Z AUTO 07003KT 7SM BKN009 OVC020 18/16 A3005 RMK AO2 =
2014-10-01 12:15 METAR KOKV 011615Z AUTO 07003KT 7SM OVC009 18/16 A3006 RMK AO2 =
2014-10-01 11:55 METAR KOKV 011555Z AUTO 06003KT 7SM BKN009 OVC012 18/16 A3006 RMK AO2 =
2014-10-01 11:35 METAR KOKV 011535Z AUTO 00000KT 7SM OVC009 18/16 A3006 RMK AO2 =
2014-10-01 11:15 METAR KOKV 011515Z AUTO 00000KT 7SM BKN009 OVC026 18/16 A3006 RMK AO2 =
2014-10-01 10:55 METAR KOKV 011455Z AUTO 10005KT 7SM OVC009 17/16 A3005 RMK AO2 =
2014-10-01 10:35 METAR KOKV 011435Z AUTO 09003KT 5SM BR OVC007 18/17 A3005 RMK AO2 =

Support USWX by starting your Amazon purchase here.